Share

Gage, OK

Barnes - Farm (KOKGAGE2) Elev 2218 ft | 36.28 °N, 99.80 °W | Change Station

Current weather conditions updated 2 seconds ago

Partly Cloudy
Partly Cloudy
70.8 °F
Feels Like 77 °F
N
8.0
Wind Variable Wind from SSE
Gusts 19.0 mph
Sunrise 7:01 AM
Sunset 8:15 PM
Moon Waning Gibbous

Today is forecast to be Much Warmer than yesterday.

Pressure 30.15 in
Visibility 10.0 miles
Clouds Few 4500 ft
Heat Index 77 °F
Dew Point 48 °F
Humidity 44%
Rainfall 0.00 in
Snow Depth Not available.
UV 6.3 out of 16
Pollen 11.00 out of 12
Air Quality Not available.
Flu Activity Regional
METAR KGAG 181853Z AUTO 18014G25KT 10SM FEW045 20/06 A3017 RMK AO2 SLP209 T02000061

More Conditions Fewer Conditions

Pressure 30.15 in
Visibility 10.0 miles
Clouds Few 4500 ft
Heat Index 77 °F
Dew Point 48 °F
Humidity 44%
Rainfall 0.00 in
Snow Depth Not available.
UV 6.3 out of 16
Pollen 11.00 out of 12
Air Quality Not available.
Flu Activity Regional
METAR KGAG 181853Z AUTO 18014G25KT 10SM FEW045 20/06 A3017 RMK AO2 SLP209 T02000061

More Conditions Fewer Conditions

10-Day Weather Forecast

Almanac

Astronomy

Apr. 18, 2014 Rise Set
Actual Time 7:01 AM CDT 8:15 PM CDT
Civil Twilight 6:34 AM CDT 8:42 PM CDT
Nautical Twilight 6:03 AM CDT 9:14 PM CDT
Astronomical Twilight 5:29 AM CDT 9:47 PM CDT
Moon 11:58 PM CDT 9:28 AM CDT
Length of Visible Light 14h 07m
Length of Day
13h 14m
Tomorrow will be 2m 9s longer.
Waning Gibbous, 86% of the Moon is Illuminated
Today
Waning Gibbous
Apr 22
Last Quarter
Apr 29
New
May 6
First Quarter
May 14
Full

Today's Extremes

State Highs State Lows

Community

  • What's for Lunch?
    What's for Lunch?
  • SUNRISE THROUGH THE TREES.
    SUNRISE THROUGH THE TREES.
  • Dog Wood Blossoms
    Dog Wood Blossoms
  • Morning Light
    Morning Light
  • New Day
    New Day

WunderPhotos

Upload Photos

1,702,475 photos uploaded!

WunderBlogs® & News

Nearby

Snow Depth

Station Depth Elevation
No new snow has been reported.

Coastal Water Temperatures

Place Temperature
No Stations Reporting

Earthquake Activity

City Distance Mag. Time & Date
Medford, Oklahoma 113 miles 3.0 5:38 PM CDT
2014-04-12
Minimum magnitude displayed is 2.5.

Nearby Weather Stations

Station Location Temp. Heat Index Dew Point Humidity Wind Precip. Elev Updated Type
Barnes - Farm, Gage, OK 70.8 °F 77 °F 48 °F 44% SSE  at  8.0 mph 0.00 in / hr 2218 ft 2:39 PM CDT Rapid Fire

Show More Stations Show Fewer Stations

What do you think?

We're not finished. Please let us know what you like, what you don't like, and what you are still missing.